Time;durP1;ratioP1;P1;durP2;ratioP2;P2;SDS_P1;SDS_P2;PMS_P1;PMS_P2;Temp;Humidity;BMP_temperature;BMP_pressure;BME280_temperature;BME280_humidity;BME280_pressure;Samples;Min_cycle;Max_cycle;Signal;HPM_P1;HPM_P2
2022/12/27 00:02:04;;;;;;;8.85;3.00;;;3.70;99.90;;;;;;5063524;28;20527;-68
2022/12/27 00:04:30;;;;;;;10.75;2.72;;;3.70;99.90;;;;;;5046669;28;20052;-68
2022/12/27 00:06:56;;;;;;;14.07;3.30;;;3.70;99.90;;;;;;5064945;28;20040;-68
2022/12/27 00:09:22;;;;;;;7.95;3.00;;;3.60;99.90;;;;;;5063467;28;20036;-68
2022/12/27 00:11:47;;;;;;;9.68;3.10;;;3.60;99.90;;;;;;5048152;28;20127;-68
2022/12/27 00:14:13;;;;;;;10.48;3.05;;;3.50;99.90;;;;;;5046724;28;20557;-68
2022/12/27 00:16:39;;;;;;;12.60;3.10;;;3.40;99.90;;;;;;5064057;28;20132;-68
2022/12/27 00:19:05;;;;;;;7.80;2.83;;;3.40;99.90;;;;;;5046860;28;20119;-69
2022/12/27 00:21:31;;;;;;;9.93;2.88;;;3.40;99.90;;;;;;5064417;28;20419;-68
2022/12/27 00:23:58;;;;;;;11.10;2.88;;;3.40;99.90;;;;;;5063261;28;20051;-68
2022/12/27 00:26:27;;;;;;;10.20;3.17;;;3.40;99.90;;;;;;5063022;28;20386;-68
2022/12/27 00:28:54;;;;;;;7.07;3.03;;;3.40;99.90;;;;;;5061171;28;20036;-68
2022/12/27 00:31:20;;;;;;;11.57;2.78;;;3.40;99.90;;;;;;5064428;28;20044;-69
2022/12/27 00:33:48;;;;;;;9.02;3.70;;;3.40;99.90;;;;;;5063155;28;20087;-68
2022/12/27 00:36:19;;;;;;;17.85;3.90;;;3.40;99.90;;;;;;5063193;28;20052;-69
2022/12/27 00:38:45;;;;;;;11.43;3.13;;;3.50;99.90;;;;;;5062574;28;20082;-68
2022/12/27 00:41:12;;;;;;;9.57;2.92;;;3.50;99.90;;;;;;5047517;28;20056;-68
2022/12/27 00:43:38;;;;;;;8.73;2.88;;;3.60;99.90;;;;;;5046477;28;20538;-68
2022/12/27 00:46:05;;;;;;;10.05;3.25;;;3.60;99.90;;;;;;5061777;28;20445;-68
2022/12/27 00:48:31;;;;;;;11.38;3.53;;;3.60;99.90;;;;;;5047355;28;20072;-68
2022/12/27 00:50:58;;;;;;;8.50;3.65;;;3.50;99.90;;;;;;5047305;28;20071;-68
2022/12/27 00:53:25;;;;;;;8.48;2.60;;;3.50;99.90;;;;;;5066852;28;20047;-68
2022/12/27 00:55:51;;;;;;;13.90;2.92;;;3.50;99.90;;;;;;5067380;28;20123;-68
2022/12/27 00:58:16;;;;;;;11.98;3.78;;;3.50;99.90;;;;;;5067006;28;20139;-69
2022/12/27 01:00:42;;;;;;;9.73;3.17;;;3.60;99.90;;;;;;5064967;28;20044;-69
2022/12/27 01:03:08;;;;;;;8.40;2.58;;;3.60;99.90;;;;;;5050384;28;20047;-69
2022/12/27 01:05:36;;;;;;;12.20;3.28;;;3.70;99.90;;;;;;5066336;28;20480;-68
2022/12/27 01:08:02;;;;;;;10.18;2.58;;;3.90;99.90;;;;;;5065391;28;20130;-68
2022/12/27 01:10:28;;;;;;;13.90;3.25;;;4.00;99.90;;;;;;5064941;28;20484;-68
2022/12/27 01:12:54;;;;;;;9.98;2.70;;;4.20;99.90;;;;;;5068920;28;20036;-68
2022/12/27 01:15:19;;;;;;;11.18;2.72;;;4.40;99.90;;;;;;5064474;28;20198;-69
2022/12/27 01:17:45;;;;;;;14.60;2.88;;;4.50;99.90;;;;;;5049778;28;20127;-68
2022/12/27 01:20:10;;;;;;;14.45;3.03;;;4.60;99.90;;;;;;5051862;28;20043;-68
2022/12/27 01:22:36;;;;;;;8.98;2.85;;;4.70;99.90;;;;;;5065937;28;20083;-68
2022/12/27 01:25:02;;;;;;;11.18;2.95;;;4.80;99.90;;;;;;5083098;28;20089;-68
2022/12/27 01:27:28;;;;;;;15.65;2.88;;;4.80;99.90;;;;;;5049670;28;20118;-68
2022/12/27 01:29:53;;;;;;;14.57;2.70;;;4.90;99.90;;;;;;5063257;28;20483;-68
2022/12/27 01:32:19;;;;;;;9.70;2.80;;;4.90;99.90;;;;;;5066981;28;20439;-69
2022/12/27 01:34:44;;;;;;;9.98;2.70;;;5.00;99.90;;;;;;5068274;28;20477;-69
2022/12/27 01:37:10;;;;;;;12.48;3.20;;;5.00;99.90;;;;;;5065865;28;20043;-68
2022/12/27 01:39:35;;;;;;;9.00;2.40;;;5.00;99.90;;;;;;5047989;28;20041;-68
2022/12/27 01:44:53;;;;;;;6.13;2.28;;;5.10;99.90;;;;;;5065099;28;20102;-68
2022/12/27 01:47:42;;;;;;;9.15;2.75;;;5.20;99.90;;;;;;5064970;28;20044;-69
2022/12/27 01:50:23;;;;;;;8.43;2.33;;;5.20;99.90;;;;;;5064120;28;20119;-68
2022/12/27 01:52:59;;;;;;;10.65;3.28;;;5.20;99.90;;;;;;5064320;28;20043;-69
2022/12/27 01:55:58;;;;;;;9.05;2.33;;;5.20;99.90;;;;;;5078458;28;20041;-68
2022/12/27 01:58:29;;;;;;;11.18;2.85;;;5.30;99.90;;;;;;5081598;28;20051;-68
2022/12/27 02:00:56;;;;;;;7.97;2.65;;;5.20;99.90;;;;;;5046941;28;20393;-69
2022/12/27 02:03:41;;;;;;;14.70;3.20;;;5.30;99.90;;;;;;5065259;28;20076;-68
2022/12/27 02:06:09;;;;;;;10.27;2.83;;;5.20;99.90;;;;;;5065189;28;20040;-69
2022/12/27 02:09:11;;;;;;;13.00;3.13;;;5.10;99.90;;;;;;5066174;28;20052;-68
2022/12/27 02:11:49;;;;;;;10.90;2.72;;;5.00;99.90;;;;;;5050165;28;20047;-69
2022/12/27 02:14:23;;;;;;;8.88;2.72;;;4.90;99.90;;;;;;5063561;28;20064;-68
2022/12/27 02:16:50;;;;;;;12.47;2.90;;;4.90;99.90;;;;;;5064229;28;20106;-68
2022/12/27 02:19:40;;;;;;;13.70;3.15;;;4.80;99.90;;;;;;5063866;28;20135;-68
2022/12/27 02:22:26;;;;;;;10.65;2.80;;;4.70;99.90;;;;;;5063808;28;20040;-68
2022/12/27 02:25:20;;;;;;;10.27;3.03;;;4.70;99.90;;;;;;5065287;28;20041;-68
2022/12/27 02:28:43;;;;;;;15.20;3.30;;;4.60;99.90;;;;;;5048228;28;20041;-68
2022/12/27 02:31:18;;;;;;;12.43;3.17;;;4.50;99.90;;;;;;5025610;28;20247;-68
2022/12/27 02:33:47;;;;;;;11.98;2.85;;;4.60;99.90;;;;;;5025746;28;20055;-68
2022/12/27 02:36:21;;;;;;;9.90;3.08;;;4.60;99.90;;;;;;5027984;28;20060;-68
2022/12/27 02:38:50;;;;;;;17.73;3.72;;;4.70;99.90;;;;;;5010715;28;20053;-68
2022/12/27 02:58:44;;;;;;;11.48;2.60;;;4.80;99.90;;;;;;5024389;28;20044;-68
2022/12/27 03:04:34;;;;;;;6.90;3.17;;;4.90;99.90;;;;;;5061998;28;20076;-68
2022/12/27 03:07:11;;;;;;;14.85;3.55;;;4.80;99.90;;;;;;5062783;28;20079;-68
2022/12/27 03:18:49;;;;;;;15.50;3.15;;;4.80;99.90;;;;;;5060636;28;20049;-68
2022/12/27 03:27:16;;;;;;;11.30;3.08;;;4.90;99.90;;;;;;5016084;28;20133;-68
2022/12/27 03:35:30;;;;;;;12.50;3.17;;;5.10;99.90;;;;;;5078859;28;20485;-68
2022/12/27 03:38:01;;;;;;;11.57;4.68;;;5.20;99.90;;;;;;5063183;28;20084;-68
2022/12/27 03:40:33;;;;;;;10.30;3.30;;;5.20;99.90;;;;;;5063826;28;20424;-68
2022/12/27 03:43:17;;;;;;;10.20;3.08;;;5.20;99.90;;;;;;5063387;28;20097;-68
2022/12/27 03:48:32;;;;;;;10.98;3.22;;;5.00;99.90;;;;;;5058101;28;20427;-69
2022/12/27 03:51:03;;;;;;;9.02;2.88;;;4.90;99.90;;;;;;5048213;28;20036;-68
2022/12/27 03:53:37;;;;;;;8.35;2.88;;;5.00;99.90;;;;;;5047088;28;20036;-68
2022/12/27 03:56:04;;;;;;;18.08;3.40;;;5.10;99.90;;;;;;5061821;28;20075;-68
2022/12/27 03:58:30;;;;;;;8.73;2.85;;;5.10;99.90;;;;;;5062029;28;20656;-68
2022/12/27 04:00:56;;;;;;;12.55;2.78;;;5.10;99.90;;;;;;5062219;28;20040;-68
2022/12/27 04:03:21;;;;;;;12.23;3.38;;;5.00;99.90;;;;;;5064936;28;20048;-68
2022/12/27 04:05:47;;;;;;;11.68;3.10;;;4.90;99.90;;;;;;5058600;28;20033;-68
2022/12/27 04:35:34;;;;;;;11.68;3.53;;;4.40;99.90;;;;;;5068082;28;20044;-68
2022/12/27 04:38:00;;;;;;;7.55;2.78;;;4.40;99.90;;;;;;5067714;28;20044;-68
2022/12/27 04:57:02;;;;;;;13.20;3.40;;;4.50;99.90;;;;;;5063927;28;20057;-68
2022/12/27 05:02:13;;;;;;;;;;;4.50;99.90;;;;;;5064800;28;20040;-68
2022/12/27 05:04:40;;;;;;;9.82;3.40;;;4.60;99.90;;;;;;5065894;28;19921;-68
2022/12/27 05:15:22;;;;;;;11.05;3.70;;;4.80;99.90;;;;;;5066329;28;20396;-68
2022/12/27 05:17:48;;;;;;;10.68;3.15;;;4.80;99.90;;;;;;5067481;28;20042;-68
2022/12/27 05:20:13;;;;;;;12.85;3.33;;;4.70;99.90;;;;;;5047867;28;20446;-68
2022/12/27 05:25:37;;;;;;;14.45;2.85;;;4.60;99.90;;;;;;5065767;28;20056;-68
2022/12/27 05:28:05;;;;;;;9.85;3.20;;;4.50;99.90;;;;;;5049477;28;20091;-68
2022/12/27 05:30:35;;;;;;;10.27;3.10;;;4.40;99.90;;;;;;5068286;28;20392;-68
2022/12/27 05:33:02;;;;;;;11.57;3.00;;;4.40;99.90;;;;;;5068399;28;20040;-68
2022/12/27 05:35:28;;;;;;;9.68;3.15;;;4.30;99.90;;;;;;5050328;28;20036;-68
2022/12/27 05:37:56;;;;;;;11.68;3.08;;;4.30;99.90;;;;;;5062334;28;20032;-68
2022/12/27 05:40:22;;;;;;;11.82;3.47;;;4.30;99.90;;;;;;5067109;28;20079;-69
2022/12/27 05:42:48;;;;;;;9.30;2.85;;;4.20;99.90;;;;;;5063290;28;20044;-68
2022/12/27 05:45:14;;;;;;;10.18;3.45;;;4.10;99.90;;;;;;5050039;28;20086;-68
2022/12/27 05:47:40;;;;;;;13.95;3.42;;;4.10;99.90;;;;;;5065024;28;20093;-68
2022/12/27 05:50:07;;;;;;;13.25;3.08;;;4.10;99.90;;;;;;5065240;28;20507;-68
2022/12/27 05:52:32;;;;;;;9.82;3.47;;;4.00;99.90;;;;;;5048708;28;20043;-68
2022/12/27 05:54:58;;;;;;;8.75;3.05;;;4.10;99.90;;;;;;5049011;28;20032;-68
2022/12/27 05:57:24;;;;;;;14.55;3.50;;;4.10;99.90;;;;;;5065275;28;20037;-69
2022/12/27 05:59:49;;;;;;;15.00;3.85;;;4.10;99.90;;;;;;5050677;28;20052;-68
2022/12/27 06:02:15;;;;;;;10.23;3.28;;;4.00;99.90;;;;;;5064754;28;20430;-68
2022/12/27 06:04:40;;;;;;;13.98;3.45;;;3.90;99.90;;;;;;5064999;28;20059;-68
2022/12/27 06:07:06;;;;;;;16.08;3.72;;;4.00;99.90;;;;;;5063677;28;20114;-68
2022/12/27 06:09:32;;;;;;;13.98;2.97;;;3.90;99.90;;;;;;5064308;28;20425;-68
2022/12/27 06:11:57;;;;;;;8.93;3.78;;;3.90;99.90;;;;;;5078911;28;20476;-68
2022/12/27 06:14:23;;;;;;;12.57;3.90;;;3.90;99.90;;;;;;5064765;28;20047;-68
2022/12/27 06:16:48;;;;;;;12.50;3.28;;;3.90;99.90;;;;;;5063400;28;20111;-68
2022/12/27 06:19:14;;;;;;;13.85;3.60;;;3.90;99.90;;;;;;5063825;28;20075;-68
2022/12/27 06:21:39;;;;;;;12.55;3.30;;;3.80;99.90;;;;;;5063791;28;20032;-68
2022/12/27 06:24:05;;;;;;;17.38;4.10;;;3.80;99.90;;;;;;5065591;28;20040;-68
2022/12/27 06:26:32;;;;;;;13.13;4.05;;;3.70;99.90;;;;;;5065136;28;20059;-68
2022/12/27 06:28:57;;;;;;;11.25;3.55;;;3.60;99.90;;;;;;5049691;28;20055;-68
2022/12/27 06:31:25;;;;;;;11.63;3.80;;;3.60;99.90;;;;;;5062952;28;20037;-69
2022/12/27 06:33:51;;;;;;;12.15;3.75;;;3.50;99.90;;;;;;5049654;28;20044;-69
2022/12/27 06:36:20;;;;;;;12.95;3.88;;;3.50;99.90;;;;;;5063810;28;20036;-68
2022/12/27 06:38:46;;;;;;;16.40;4.32;;;3.40;99.90;;;;;;5048928;28;20185;-68
2022/12/27 06:41:16;;;;;;;14.10;3.50;;;3.30;99.90;;;;;;5081547;28;20056;-68
2022/12/27 06:43:42;;;;;;;15.45;3.85;;;3.30;99.90;;;;;;5043436;28;20049;-68
2022/12/27 06:46:17;;;;;;;11.35;3.63;;;3.20;99.90;;;;;;5062005;28;20047;-68
2022/12/27 06:48:43;;;;;;;10.35;3.63;;;3.10;99.90;;;;;;5065300;28;20044;-68
2022/12/27 06:51:10;;;;;;;11.02;3.50;;;3.20;99.90;;;;;;5062442;28;20396;-68
2022/12/27 06:53:36;;;;;;;11.15;4.00;;;3.10;99.90;;;;;;5047050;28;20068;-68
2022/12/27 06:56:07;;;;;;;11.05;3.40;;;3.20;99.90;;;;;;5060209;28;20074;-68
2022/12/27 06:58:32;;;;;;;9.68;3.45;;;3.30;99.90;;;;;;5062279;28;20044;-68
2022/12/27 07:01:09;;;;;;;11.57;3.25;;;3.30;99.90;;;;;;5048296;28;20036;-68
2022/12/27 07:03:35;;;;;;;15.93;3.53;;;3.20;99.90;;;;;;5079345;28;20068;-68
2022/12/27 07:06:05;;;;;;;13.80;3.75;;;3.20;99.90;;;;;;5063125;28;20036;-69
2022/12/27 07:08:31;;;;;;;13.10;3.95;;;3.20;99.90;;;;;;5049622;28;20076;-68
2022/12/27 07:11:06;;;;;;;11.13;3.50;;;3.20;99.90;;;;;;5063962;28;20112;-68
2022/12/27 07:13:44;;;;;;;10.23;3.22;;;3.20;99.90;;;;;;5063447;28;20119;-68
2022/12/27 07:16:12;;;;;;;9.52;3.47;;;3.20;99.90;;;;;;5065497;28;20064;-68
2022/12/27 07:18:38;;;;;;;11.07;3.00;;;3.20;99.90;;;;;;5065065;28;20164;-68
2022/12/27 07:21:10;;;;;;;12.13;3.20;;;3.20;99.90;;;;;;5063326;28;20040;-68
2022/12/27 07:23:36;;;;;;;14.45;3.30;;;3.30;99.90;;;;;;5047225;28;20381;-68
2022/12/27 07:26:06;;;;;;;15.77;3.90;;;3.40;99.90;;;;;;5061530;28;20041;-68
2022/12/27 07:28:32;;;;;;;13.85;4.35;;;3.40;99.90;;;;;;5048235;28;20036;-68
2022/12/27 07:30:58;;;;;;;17.58;3.30;;;3.40;99.90;;;;;;5063376;28;20048;-68
2022/12/27 07:33:24;;;;;;;10.07;3.33;;;3.50;99.90;;;;;;5059048;28;20047;-69
2022/12/27 07:35:57;;;;;;;10.57;3.60;;;3.50;99.90;;;;;;5063979;28;20396;-68
2022/12/27 07:38:23;;;;;;;15.15;3.58;;;3.50;99.90;;;;;;5063871;28;20055;-68
2022/12/27 07:40:49;;;;;;;11.88;3.45;;;3.40;99.90;;;;;;5047119;28;20061;-68
2022/12/27 07:43:14;;;;;;;14.25;3.50;;;3.30;99.90;;;;;;5047901;28;20412;-69
2022/12/27 07:45:40;;;;;;;15.18;3.88;;;3.30;99.90;;;;;;5065275;28;20182;-68
2022/12/27 07:48:05;;;;;;;15.45;3.72;;;3.20;99.90;;;;;;5062621;28;20037;-68
2022/12/27 07:50:31;;;;;;;15.80;3.80;;;3.20;99.90;;;;;;5048323;28;20032;-68
2022/12/27 07:52:56;;;;;;;12.73;4.30;;;3.20;99.90;;;;;;5062160;28;20045;-68
2022/12/27 07:55:22;;;;;;;14.23;3.90;;;3.20;99.90;;;;;;5061399;28;20056;-68
2022/12/27 07:57:47;;;;;;;15.43;3.70;;;3.20;99.90;;;;;;5062483;28;20051;-68
2022/12/27 08:00:13;;;;;;;13.05;3.70;;;3.20;99.90;;;;;;5064483;28;20480;-68
2022/12/27 08:02:39;;;;;;;13.88;3.92;;;3.20;99.90;;;;;;5063489;28;20463;-68
2022/12/27 08:05:05;;;;;;;16.98;3.90;;;3.20;99.90;;;;;;5063325;28;20059;-68
2022/12/27 08:07:30;;;;;;;16.85;4.50;;;3.20;99.90;;;;;;5058160;28;20041;-68
2022/12/27 08:09:56;;;;;;;14.15;3.95;;;3.20;99.90;;;;;;5063332;28;20040;-68
2022/12/27 08:12:22;;;;;;;15.15;4.13;;;3.20;99.90;;;;;;5063461;28;20411;-68
2022/12/27 08:14:47;;;;;;;11.43;3.63;;;3.20;99.90;;;;;;5046709;28;20041;-69
2022/12/27 08:17:22;;;;;;;16.67;4.47;;;3.20;99.90;;;;;;5061453;28;20045;-68
2022/12/27 08:19:50;;;;;;;16.60;3.97;;;3.20;99.90;;;;;;5075985;28;20052;-68
2022/12/27 08:22:16;;;;;;;13.27;3.85;;;3.10;99.90;;;;;;5046502;28;20040;-68
2022/12/27 08:24:42;;;;;;;16.92;4.45;;;3.10;99.90;;;;;;5055718;28;20087;-68
2022/12/27 08:27:08;;;;;;;17.25;4.57;;;3.10;99.90;;;;;;5061988;28;20110;-68
2022/12/27 08:29:34;;;;;;;14.40;4.05;;;3.10;99.90;;;;;;5059801;28;20040;-68
2022/12/27 08:32:00;;;;;;;15.90;5.25;;;3.10;99.90;;;;;;5064289;28;20036;-68
2022/12/27 08:34:26;;;;;;;15.95;4.43;;;3.20;99.90;;;;;;5047390;28;20041;-68
2022/12/27 08:36:51;;;;;;;20.85;4.78;;;3.20;99.90;;;;;;5062251;28;20036;-68
2022/12/27 08:39:18;;;;;;;16.42;4.32;;;3.20;99.90;;;;;;5045399;28;20162;-68
2022/12/27 08:41:44;;;;;;;13.18;4.57;;;3.20;99.90;;;;;;5047877;28;20407;-68
2022/12/27 08:44:10;;;;;;;15.07;4.30;;;3.20;99.90;;;;;;5043877;28;20485;-68
2022/12/27 08:46:36;;;;;;;17.67;5.20;;;3.20;99.90;;;;;;5063864;28;20079;-68
2022/12/27 08:49:03;;;;;;;16.20;4.47;;;3.30;99.90;;;;;;5063006;28;20036;-68
2022/12/27 08:51:29;;;;;;;16.67;4.20;;;3.30;99.90;;;;;;5046549;28;20430;-69
2022/12/27 08:53:54;;;;;;;13.00;4.47;;;3.40;99.90;;;;;;5060656;28;20062;-68
2022/12/27 08:56:20;;;;;;;15.73;4.70;;;3.50;99.90;;;;;;5048361;28;20086;-68
2022/12/27 08:58:49;;;;;;;13.23;3.83;;;3.60;99.90;;;;;;5045704;28;20114;-68
2022/12/27 09:01:15;;;;;;;12.82;4.15;;;3.70;99.90;;;;;;5065049;28;20040;-68
2022/12/27 09:03:41;;;;;;;14.52;4.25;;;3.70;99.90;;;;;;5061732;28;20047;-68
2022/12/27 09:06:16;;;;;;;12.88;3.67;;;3.80;99.90;;;;;;5076299;28;20580;-68
2022/12/27 09:08:43;;;;;;;20.38;3.83;;;3.80;99.90;;;;;;5046850;28;20041;-68
2022/12/27 09:11:18;;;;;;;11.98;3.70;;;3.90;99.90;;;;;;5061037;28;20059;-68
2022/12/27 09:13:44;;;;;;;14.23;3.92;;;4.00;99.90;;;;;;5064192;28;20083;-68
2022/12/27 09:16:13;;;;;;;16.98;3.75;;;4.00;99.90;;;;;;5048502;28;20059;-68
2022/12/27 09:18:39;;;;;;;15.00;4.22;;;4.10;99.90;;;;;;5050898;28;20049;-68
2022/12/27 09:21:10;;;;;;;15.48;3.60;;;4.30;99.90;;;;;;5062939;28;20377;-68
2022/12/27 09:23:36;;;;;;;15.63;3.72;;;4.40;99.90;;;;;;5050299;28;20143;-68
2022/12/27 09:26:07;;;;;;;15.70;4.32;;;4.50;99.90;;;;;;5047810;28;20035;-68
2022/12/27 09:28:34;;;;;;;12.93;4.32;;;4.50;99.90;;;;;;5060673;28;20044;-68
2022/12/27 09:31:00;;;;;;;13.27;3.90;;;4.60;99.90;;;;;;5065828;28;20040;-68
2022/12/27 09:33:26;;;;;;;14.85;3.95;;;4.70;99.90;;;;;;5062316;28;20028;-68
2022/12/27 09:35:52;;;;;;;11.40;4.10;;;4.80;99.90;;;;;;5049320;28;20086;-68
2022/12/27 09:38:18;;;;;;;15.85;4.47;;;4.80;99.90;;;;;;5067198;28;20044;-68
2022/12/27 09:40:55;;;;;;;14.65;4.95;;;4.90;99.90;;;;;;5060924;28;20103;-68
2022/12/27 09:43:36;;;;;;;14.98;4.35;;;5.00;99.90;;;;;;5055092;28;20045;-68
2022/12/27 09:46:04;;;;;;;13.10;3.75;;;5.10;99.90;;;;;;5048514;28;20181;-68
2022/12/27 09:48:34;;;;;;;11.05;3.60;;;5.20;99.90;;;;;;5049006;28;20473;-68
2022/12/27 09:51:20;;;;;;;11.98;3.90;;;5.30;99.90;;;;;;5064783;28;20087;-68
2022/12/27 09:53:55;;;;;;;12.43;3.90;;;5.40;99.90;;;;;;5063539;28;20044;-68
2022/12/27 09:56:26;;;;;;;16.40;4.13;;;5.40;99.90;;;;;;5060990;28;20037;-68
2022/12/27 09:58:55;;;;;;;13.60;4.57;;;5.50;99.90;;;;;;5073971;28;20036;-68
2022/12/27 10:01:33;;;;;;;13.65;3.55;;;5.60;99.90;;;;;;5062341;28;20055;-68
2022/12/27 10:04:00;;;;;;;9.25;3.45;;;5.70;99.90;;;;;;5062489;28;20072;-68
2022/12/27 10:07:03;;;;;;;12.77;3.72;;;5.70;99.90;;;;;;5075949;28;20044;-68
2022/12/27 10:09:34;;;;;;;12.57;3.70;;;5.80;99.90;;;;;;5030871;28;20506;-68
2022/12/27 10:12:16;;;;;;;13.10;3.80;;;5.90;99.90;;;;;;5054562;28;20099;-68
2022/12/27 10:15:09;;;;;;;14.32;3.90;;;5.90;99.90;;;;;;5040593;28;20151;-68
2022/12/27 10:17:53;;;;;;;12.30;3.42;;;6.00;99.90;;;;;;5051807;28;20110;-68
2022/12/27 10:20:42;;;;;;;11.23;3.50;;;6.10;99.90;;;;;;5071092;28;20486;-68
2022/12/27 10:23:13;;;;;;;14.32;3.08;;;6.10;99.90;;;;;;5060995;28;20055;-68
2022/12/27 10:25:40;;;;;;;12.80;3.60;;;6.10;99.90;;;;;;5059552;28;20048;-68
2022/12/27 10:28:16;;;;;;;9.95;3.33;;;6.10;99.90;;;;;;5061248;28;20052;-68
2022/12/27 10:30:43;;;;;;;11.68;4.20;;;6.20;99.90;;;;;;5061885;28;20040;-68
2022/12/27 10:33:31;;;;;;;12.38;3.60;;;6.40;99.90;;;;;;5050217;28;20094;-69
2022/12/27 10:35:57;;;;;;;11.43;3.88;;;6.60;99.90;;;;;;5059324;28;20624;-68
2022/12/27 10:38:24;;;;;;;13.82;3.75;;;6.60;99.90;;;;;;5060602;28;20446;-68
2022/12/27 10:41:14;;;;;;;16.00;3.72;;;6.60;99.90;;;;;;5033525;28;20060;-68
2022/12/27 10:43:42;;;;;;;7.85;3.13;;;6.60;99.90;;;;;;5049111;28;20139;-68
2022/12/27 10:46:12;;;;;;;11.25;3.20;;;6.70;99.90;;;;;;5057048;28;20504;-68
2022/12/27 10:48:38;;;;;;;10.90;3.35;;;6.70;99.90;;;;;;5062813;28;20059;-68
2022/12/27 10:51:09;;;;;;;12.60;3.28;;;6.90;99.90;;;;;;5041374;28;20373;-68
2022/12/27 10:53:52;;;;;;;12.30;3.22;;;7.00;99.90;;;;;;5061267;28;20515;-68
2022/12/27 10:56:25;;;;;;;14.63;3.22;;;7.10;99.90;;;;;;5049093;28;20086;-68
2022/12/27 10:58:53;;;;;;;12.73;3.72;;;7.20;99.90;;;;;;5059214;28;20040;-68
2022/12/27 11:01:29;;;;;;;8.38;2.90;;;7.30;99.90;;;;;;5055192;28;20090;-68
2022/12/27 11:04:09;;;;;;;11.25;3.20;;;7.50;99.90;;;;;;5058688;28;20522;-68
2022/12/27 11:06:35;;;;;;;11.38;3.08;;;7.60;99.90;;;;;;5060516;28;20051;-68
2022/12/27 11:09:25;;;;;;;14.10;3.30;;;7.60;99.90;;;;;;5058241;28;20398;-68
2022/12/27 11:11:51;;;;;;;12.85;3.30;;;7.70;99.90;;;;;;5043232;28;20044;-68
2022/12/27 11:14:19;;;;;;;13.05;3.30;;;7.70;99.90;;;;;;5058045;28;20439;-68
2022/12/27 11:16:46;;;;;;;8.35;2.88;;;7.70;99.90;;;;;;5055313;28;20044;-68
2022/12/27 11:19:24;;;;;;;12.48;4.03;;;7.60;99.90;;;;;;5058222;28;20033;-68
2022/12/27 11:21:52;;;;;;;11.07;2.95;;;7.40;99.90;;;;;;5041459;28;20396;-68
2022/12/27 11:24:20;;;;;;;13.05;3.00;;;7.30;99.90;;;;;;5076152;28;20036;-68
2022/12/27 11:27:04;;;;;;;9.93;3.30;;;7.20;99.90;;;;;;5058086;28;20055;-68
2022/12/27 11:29:31;;;;;;;13.27;3.58;;;7.50;99.90;;;;;;5057428;28;20504;-68
2022/12/27 11:32:05;;;;;;;11.52;2.95;;;7.70;99.90;;;;;;5059279;28;20042;-69
2022/12/27 11:34:36;;;;;;;9.93;2.92;;;7.90;99.90;;;;;;5039721;28;20060;-68
2022/12/27 11:37:13;;;;;;;13.80;3.47;;;8.00;99.90;;;;;;5044724;28;20229;-69
2022/12/27 11:39:47;;;;;;;8.73;2.92;;;8.00;99.90;;;;;;5064592;28;20115;-68
2022/12/27 11:42:43;;;;;;;12.40;3.20;;;8.00;99.90;;;;;;5060929;28;20036;-69
2022/12/27 11:45:18;;;;;;;10.63;3.38;;;8.10;99.90;;;;;;5055856;28;20127;-68
2022/12/27 11:48:01;;;;;;;10.98;2.97;;;8.20;99.90;;;;;;5042459;28;20036;-68
2022/12/27 11:50:53;;;;;;;13.80;3.20;;;8.20;99.90;;;;;;5047667;28;20033;-68
2022/12/27 11:53:41;;;;;;;9.77;2.83;;;8.20;99.90;;;;;;5046126;28;20072;-68
2022/12/27 11:56:20;;;;;;;9.02;3.00;;;8.20;99.90;;;;;;5061946;28;20106;-69
2022/12/27 11:59:13;;;;;;;11.18;3.22;;;8.00;99.90;;;;;;5054548;28;20071;-68
2022/12/27 12:01:51;;;;;;;9.80;3.00;;;7.90;99.90;;;;;;5043755;28;20414;-69
2022/12/27 12:04:50;;;;;;;11.88;3.30;;;7.80;99.90;;;;;;5059728;28;20488;-69
2022/12/27 12:07:53;;;;;;;10.65;3.00;;;7.80;99.90;;;;;;5060953;28;20040;-68
2022/12/27 12:10:54;;;;;;;9.80;3.00;;;7.70;99.90;;;;;;5031807;28;20509;-68
2022/12/27 12:13:40;;;;;;;10.55;2.90;;;7.70;99.90;;;;;;5053475;28;20050;-68
2022/12/27 12:16:24;;;;;;;10.50;3.05;;;7.70;99.90;;;;;;5058567;28;20044;-68
2022/12/27 12:19:09;;;;;;;11.85;3.33;;;7.80;99.90;;;;;;5066360;28;20048;-69
2022/12/27 12:21:34;;;;;;;;;;;7.90;99.90;;;;;;5042100;28;20064;-69
2022/12/27 12:24:23;;;;;;;10.35;3.15;;;7.90;99.90;;;;;;5042691;28;19976;-69
2022/12/27 12:26:58;;;;;;;14.85;3.42;;;8.00;99.90;;;;;;5072641;28;20044;-69
2022/12/27 12:29:26;;;;;;;;;;;8.00;99.90;;;;;;5058689;28;20044;-68
2022/12/27 12:32:28;;;;;;;12.57;3.25;;;7.90;99.90;;;;;;5075617;28;20360;-69
2022/12/27 12:35:20;;;;;;;12.45;3.03;;;7.70;99.90;;;;;;5056726;28;20165;-69
2022/12/27 12:38:03;;;;;;;9.75;2.70;;;7.50;99.90;;;;;;5053621;28;20053;-69
2022/12/27 12:40:51;;;;;;;13.97;2.77;;;7.40;99.90;;;;;;5060915;28;20091;-69
2022/12/27 12:43:41;;;;;;;13.32;3.15;;;7.30;99.90;;;;;;5062264;28;20097;-69
2022/12/27 12:46:35;;;;;;;12.73;3.42;;;7.20;99.90;;;;;;5057825;28;20044;-68
2022/12/27 12:49:20;;;;;;;15.07;3.50;;;7.10;99.90;;;;;;5064079;28;20049;-69
2022/12/27 12:52:03;;;;;;;10.25;3.30;;;7.00;99.90;;;;;;5060396;28;20663;-69
2022/12/27 12:54:38;;;;;;;11.33;3.27;;;6.90;99.90;;;;;;5076369;28;20043;-69
2022/12/27 12:57:10;;;;;;;9.95;3.65;;;6.90;99.90;;;;;;5045230;28;20048;-69
2022/12/27 13:00:08;;;;;;;11.45;3.55;;;6.80;99.90;;;;;;5064156;28;20045;-69
2022/12/27 13:03:16;;;;;;;12.43;3.40;;;6.80;99.90;;;;;;5062868;28;20044;-69
2022/12/27 13:05:46;;;;;;;12.02;3.60;;;6.80;99.90;;;;;;5050582;28;20053;-69
2022/12/27 13:08:33;;;;;;;13.85;4.18;;;6.80;99.90;;;;;;5063116;28;20044;-69
2022/12/27 13:11:04;;;;;;;14.00;3.45;;;6.70;99.90;;;;;;5079775;28;20591;-68
2022/12/27 13:13:54;;;;;;;11.43;3.67;;;6.70;99.90;;;;;;5066770;28;20143;-68
2022/12/27 13:16:29;;;;;;;10.00;3.83;;;6.70;99.90;;;;;;5063699;28;20464;-69
2022/12/27 13:19:13;;;;;;;15.00;3.65;;;6.70;99.90;;;;;;5045988;28;20067;-69
2022/12/27 13:21:57;;;;;;;11.05;3.67;;;6.70;99.90;;;;;;5065182;28;20048;-69
2022/12/27 13:24:46;;;;;;;11.45;3.95;;;6.60;99.90;;;;;;5062159;28;20056;-69
2022/12/27 13:27:34;;;;;;;12.60;3.90;;;6.70;99.90;;;;;;5059367;28;20076;-69
2022/12/27 13:30:20;;;;;;;12.55;3.50;;;6.60;99.90;;;;;;5048496;28;20037;-69
2022/12/27 13:32:55;;;;;;;11.00;3.53;;;6.60;99.90;;;;;;5059101;28;20140;-69
2022/12/27 13:35:49;;;;;;;10.93;3.38;;;6.60;99.90;;;;;;5042743;28;20037;-68
2022/12/27 13:38:27;;;;;;;14.88;3.80;;;6.60;99.90;;;;;;5044144;28;20048;-69
2022/12/27 13:41:27;;;;;;;11.20;3.58;;;6.50;99.90;;;;;;5047014;28;20427;-68
2022/12/27 13:44:19;;;;;;;9.30;3.83;;;6.50;99.90;;;;;;5060989;28;20503;-69
2022/12/27 13:47:06;;;;;;;15.63;4.97;;;6.40;99.90;;;;;;5058540;28;20067;-69
2022/12/27 13:49:52;;;;;;;11.73;3.95;;;6.40;99.90;;;;;;5047941;28;20412;-69
2022/12/27 13:52:36;;;;;;;16.38;4.68;;;6.30;99.90;;;;;;5062749;28;20043;-69
2022/12/27 13:55:21;;;;;;;13.80;4.68;;;6.30;99.90;;;;;;5057574;28;20064;-69
2022/12/27 13:58:28;;;;;;;15.23;4.38;;;6.30;99.90;;;;;;5046143;28;20454;-69
2022/12/27 14:01:09;;;;;;;14.52;4.78;;;6.30;99.90;;;;;;5041904;28;20067;-68
2022/12/27 14:04:09;;;;;;;14.55;4.68;;;6.30;99.90;;;;;;5061062;28;20090;-69
2022/12/27 14:06:44;;;;;;;18.75;5.47;;;6.30;99.90;;;;;;5061706;28;20492;-69
2022/12/27 14:09:34;;;;;;;14.13;4.78;;;6.30;99.90;;;;;;5046388;28;20047;-69
2022/12/27 14:12:15;;;;;;;19.60;5.47;;;6.30;99.90;;;;;;5064063;28;20040;-69
2022/12/27 14:14:43;;;;;;;13.63;5.45;;;6.40;99.90;;;;;;5066011;28;20093;-68
2022/12/27 14:17:26;;;;;;;16.60;4.82;;;6.40;99.90;;;;;;5062412;28;20523;-68
2022/12/27 14:20:17;;;;;;;16.80;5.88;;;6.40;99.90;;;;;;5058251;28;20041;-68
2022/12/27 14:23:06;;;;;;;15.13;5.65;;;6.50;99.90;;;;;;5063523;28;20451;-69
2022/12/27 14:25:59;;;;;;;18.63;5.75;;;6.50;99.90;;;;;;5065475;28;20094;-69
2022/12/27 14:28:51;;;;;;;15.32;6.18;;;6.50;99.90;;;;;;5076265;28;20036;-69
2022/12/27 14:31:23;;;;;;;16.13;5.80;;;6.50;99.90;;;;;;5013412;28;20055;-68
2022/12/27 14:34:19;;;;;;;17.35;6.68;;;6.50;99.90;;;;;;5046979;28;20036;-69
2022/12/27 14:36:57;;;;;;;14.13;6.28;;;6.50;99.90;;;;;;5065115;28;20040;-69
2022/12/27 14:40:00;;;;;;;17.45;6.60;;;6.50;99.90;;;;;;5063960;28;20043;-69
2022/12/27 14:42:44;;;;;;;18.27;7.07;;;6.40;99.90;;;;;;5045853;28;20044;-68
2022/12/27 14:45:34;;;;;;;15.82;7.05;;;6.40;99.90;;;;;;5061997;28;20482;-69
2022/12/27 14:48:21;;;;;;;12.15;6.38;;;6.40;99.90;;;;;;5043305;28;20048;-69
2022/12/27 14:51:02;;;;;;;22.05;7.43;;;6.30;99.90;;;;;;5060360;28;20396;-68
2022/12/27 14:53:36;;;;;;;16.58;7.03;;;6.20;99.90;;;;;;5062222;28;20047;-68
2022/12/27 14:56:30;;;;;;;13.20;6.90;;;6.20;99.90;;;;;;5062048;28;20097;-68
2022/12/27 14:59:12;;;;;;;16.92;7.30;;;6.10;99.90;;;;;;5041363;28;20052;-69
2022/12/27 15:02:00;;;;;;;17.95;7.70;;;6.00;99.90;;;;;;5058999;28;20067;-69
2022/12/27 15:04:44;;;;;;;17.45;7.30;;;6.00;99.90;;;;;;5055206;28;20059;-68
2022/12/27 15:07:16;;;;;;;19.55;8.02;;;5.90;99.90;;;;;;5062997;28;20041;-68
2022/12/27 15:10:03;;;;;;;19.75;7.68;;;5.90;99.90;;;;;;5067970;28;20625;-69